Time;durP1;ratioP1;P1;durP2;ratioP2;P2;SDS_P1;SDS_P2;PMS_P1;PMS_P2;Temp;Humidity;BMP_temperature;BMP_pressure;BME280_temperature;BME280_humidity;BME280_pressure;Samples;Min_cycle;Max_cycle;Signal;HPM_P1;HPM_P2
2021/01/19 00:01:07;;;;;;;;;;;;;;;;;;5054714;28;19988;-61
2021/01/19 00:03:33;;;;;;;;;;;;;;;;;;5054578;28;19953;-62
2021/01/19 00:05:59;;;;;;;;;;;;;;;;;;5054296;28;20322;-62
2021/01/19 00:08:25;;;;;;;;;;;;;;;;;;5054433;28;19919;-62
2021/01/19 00:10:51;;;;;;;;;;;;;;;;;;5054501;28;20281;-62
2021/01/19 00:13:20;;;;;;;;;;;;;;;;;;5053567;28;19953;-62
2021/01/19 00:15:46;;;;;;;;;;;;;;;;;;5054320;28;19929;-62
2021/01/19 00:18:12;;;;;;;;;;;;;;;;;;5054046;28;20328;-62
2021/01/19 00:20:38;;;;;;;;;;;;;;;;;;5054000;28;19985;-62
2021/01/19 00:23:04;;;;;;;;;;;;;;;;;;5054008;28;20344;-62
2021/01/19 00:25:30;;;;;;;;;;;;;;;;;;5054264;28;19955;-62
2021/01/19 00:27:56;;;;;;;;;;;;;;;;;;5054054;28;19941;-62
2021/01/19 00:30:22;;;;;;;;;;;;;;;;;;5053875;28;19916;-63
2021/01/19 00:32:48;;;;;;;;;;;;;;;;;;5053866;28;19919;-63
2021/01/19 00:35:14;;;;;;;;;;;;;;;;;;5054298;28;19915;-62
2021/01/19 00:37:40;;;;;;;;;;;;;;;;;;5054074;28;20285;-61
2021/01/19 00:40:06;;;;;;;;;;;;;;;;;;5053778;28;19974;-63
2021/01/19 00:42:32;;;;;;;;;;;;;;;;;;5035972;28;19923;-62
2021/01/19 00:44:58;;;;;;;;;;;;;;;;;;5035849;28;19962;-63
2021/01/19 00:47:23;;;;;;;;;;;;;;;;;;5053728;28;19945;-62
2021/01/19 00:49:49;;;;;;;;;;;;;;;;;;5053931;28;19972;-63
2021/01/19 00:52:15;;;;;;;;;;;;;;;;;;5053556;28;19909;-62
2021/01/19 00:54:43;;;;;;;;;;;;;;;;;;5053730;28;19919;-62
2021/01/19 00:57:09;;;;;;;;;;;;;;;;;;5053510;28;19924;-62
2021/01/19 00:59:35;;;;;;;;;;;;;;;;;;5053926;28;19931;-62
2021/01/19 01:02:01;;;;;;;;;;;;;;;;;;5053726;28;19971;-62
2021/01/19 01:04:27;;;;;;;;;;;;;;;;;;5053467;28;20050;-62
2021/01/19 01:06:53;;;;;;;;;;;;;;;;;;5053430;28;19923;-61
2021/01/19 01:09:19;;;;;;;;;;;;;;;;;;5053867;28;20267;-62
2021/01/19 01:11:45;;;;;;;;;;;;;;;;;;5053660;28;19916;-62
2021/01/19 01:14:11;;;;;;;;;;;;;;;;;;5053514;28;19965;-62
2021/01/19 01:16:37;;;;;;;;;;;;;;;;;;5053441;28;19909;-62
2021/01/19 01:19:03;;;;;;;;;;;;;;;;;;5053653;28;20368;-61
2021/01/19 01:21:29;;;;;;;;;;;;;;;;;;5053729;28;19929;-62
2021/01/19 01:23:55;;;;;;;;;;;;;;;;;;5053208;28;20003;-62
2021/01/19 01:26:23;;;;;;;;;;;;;;;;;;5056872;28;19943;-62
2021/01/19 01:28:49;;;;;;;;;;;;;;;;;;5057260;28;19953;-62
2021/01/19 01:31:15;;;;;;;;;;;;;;;;;;5071348;23;19919;-61
2021/01/19 01:33:41;;;;;;;;;;;;;;;;;;5056716;28;20035;-61
2021/01/19 01:36:06;;;;;;;;;;;;;;;;;;5057354;28;19928;-61
2021/01/19 01:38:32;;;;;;;;;;;;;;;;;;5056897;28;20022;-61
2021/01/19 01:40:58;;;;;;;;;;;;;;;;;;5056962;28;19934;-61
2021/01/19 01:43:24;;;;;;;;;;;;;;;;;;5057285;28;19921;-61
2021/01/19 01:45:50;;;;;;;;;;;;;;;;;;5056992;28;20302;-61
2021/01/19 01:48:16;;;;;;;;;;;;;;;;;;5057601;28;19909;-59
2021/01/19 01:50:42;;;;;;;;;;;;;;;;;;5056922;28;20277;-59
2021/01/19 01:53:08;;;;;;;;;;;;;;;;;;5056681;28;19916;-59
2021/01/19 01:55:34;;;;;;;;;;;;;;;;;;5057125;28;20041;-59
2021/01/19 01:58:00;;;;;;;;;;;;;;;;;;5056756;28;19949;-59
2021/01/19 02:00:26;;;;;;;;;;;;;;;;;;5056656;28;19995;-59
2021/01/19 02:02:52;;;;;;;;;;;;;;;;;;5056838;28;19915;-59
2021/01/19 02:05:18;;;;;;;;;;;;;;;;;;5056782;28;19917;-59
2021/01/19 02:07:44;;;;;;;;;;;;;;;;;;5056489;28;19963;-59
2021/01/19 02:10:10;;;;;;;;;;;;;;;;;;5056834;28;20314;-59
2021/01/19 02:12:36;;;;;;;;;;;;;;;;;;5056600;28;20030;-60
2021/01/19 02:15:02;;;;;;;;;;;;;;;;;;5056629;28;19993;-59
2021/01/19 02:17:28;;;;;;;;;;;;;;;;;;5056638;28;20010;-59
2021/01/19 02:19:54;;;;;;;;;;;;;;;;;;5056503;28;19909;-59
2021/01/19 02:22:20;;;;;;;;;;;;;;;;;;5056331;28;20012;-59
2021/01/19 02:24:46;;;;;;;;;;;;;;;;;;5037189;28;19966;-59
2021/01/19 02:27:12;;;;;;;;;;;;;;;;;;5036205;28;19924;-59
2021/01/19 02:29:38;;;;;;;;;;;;;;;;;;5036412;28;19955;-59
2021/01/19 02:32:04;;;;;;;;;;;;;;;;;;5036089;28;19964;-59
2021/01/19 02:34:30;;;;;;;;;;;;;;;;;;5036415;28;19924;-59
2021/01/19 02:36:56;;;;;;;;;;;;;;;;;;5035080;28;19956;-59
2021/01/19 02:39:22;;;;;;;;;;;;;;;;;;5036024;28;19945;-59
2021/01/19 02:41:48;;;;;;;;;;;;;;;;;;5035977;28;19995;-59
2021/01/19 02:44:14;;;;;;;;;;;;;;;;;;5035899;28;19961;-59
2021/01/19 02:46:40;;;;;;;;;;;;;;;;;;5036197;28;20333;-59
2021/01/19 02:49:06;;;;;;;;;;;;;;;;;;5035810;28;19926;-59
2021/01/19 02:51:32;;;;;;;;;;;;;;;;;;5035830;28;19970;-59
2021/01/19 02:53:58;;;;;;;;;;;;;;;;;;5035804;28;19944;-59
2021/01/19 02:56:24;;;;;;;;;;;;;;;;;;5035765;28;19909;-59
2021/01/19 02:58:50;;;;;;;;;;;;;;;;;;5035553;28;19930;-59
2021/01/19 03:01:16;;;;;;;;;;;;;;;;;;5036015;28;19974;-59
2021/01/19 03:03:42;;;;;;;;;;;;;;;;;;5035714;28;19924;-59
2021/01/19 03:06:08;;;;;;;;;;;;;;;;;;5017809;28;19916;-59
2021/01/19 03:08:34;;;;;;;;;;;;;;;;;;5035485;28;19930;-59
2021/01/19 03:11:00;;;;;;;;;;;;;;;;;;5035785;28;19916;-59
2021/01/19 03:13:26;;;;;;;;;;;;;;;;;;5035731;28;20323;-59
2021/01/19 03:15:52;;;;;;;;;;;;;;;;;;5035755;28;19916;-59
2021/01/19 03:18:18;;;;;;;;;;;;;;;;;;5035391;28;19929;-60
2021/01/19 03:20:44;;;;;;;;;;;;;;;;;;5035778;28;20255;-59
2021/01/19 03:23:10;;;;;;;;;;;;;;;;;;5035002;28;19909;-59
2021/01/19 03:25:36;;;;;;;;;;;;;;;;;;5035240;28;19948;-59
2021/01/19 03:28:01;;;;;;;;;;;;;;;;;;5035074;28;19951;-59
2021/01/19 03:30:27;;;;;;;;;;;;;;;;;;5035195;28;19913;-59
2021/01/19 03:32:53;;;;;;;;;;;;;;;;;;5034844;28;20451;-59
2021/01/19 03:35:19;;;;;;;;;;;;;;;;;;5035415;28;19951;-59
2021/01/19 03:37:45;;;;;;;;;;;;;;;;;;5035010;28;20372;-59
2021/01/19 03:40:11;;;;;;;;;;;;;;;;;;5034911;28;19947;-59
2021/01/19 03:42:39;;;;;;;;;;;;;;;;;;5034848;28;19973;-59
2021/01/19 03:45:05;;;;;;;;;;;;;;;;;;5034680;28;19955;-59
2021/01/19 03:47:31;;;;;;;;;;;;;;;;;;5034583;28;20011;-59
2021/01/19 03:49:57;;;;;;;;;;;;;;;;;;5035013;28;19926;-59
2021/01/19 03:52:23;;;;;;;;;;;;;;;;;;5035069;28;20450;-59
2021/01/19 03:54:49;;;;;;;;;;;;;;;;;;5034691;28;20281;-59
2021/01/19 03:57:15;;;;;;;;;;;;;;;;;;5034817;28;19928;-59
2021/01/19 03:59:41;;;;;;;;;;;;;;;;;;5034474;28;19916;-59
2021/01/19 04:02:06;;;;;;;;;;;;;;;;;;5016946;28;19949;-59
2021/01/19 04:04:32;;;;;;;;;;;;;;;;;;5034472;28;19951;-59
2021/01/19 04:06:58;;;;;;;;;;;;;;;;;;5034448;28;19921;-59
2021/01/19 04:09:24;;;;;;;;;;;;;;;;;;5034460;28;19932;-59
2021/01/19 04:11:50;;;;;;;;;;;;;;;;;;5034283;28;19949;-59
2021/01/19 04:14:16;;;;;;;;;;;;;;;;;;5034374;28;19909;-59
2021/01/19 04:16:42;;;;;;;;;;;;;;;;;;5034759;28;19909;-59
2021/01/19 04:19:08;;;;;;;;;;;;;;;;;;5034369;28;19913;-59
2021/01/19 04:21:34;;;;;;;;;;;;;;;;;;5034147;28;19930;-59
2021/01/19 04:24:00;;;;;;;;;;;;;;;;;;5034358;28;19955;-59
2021/01/19 04:26:26;;;;;;;;;;;;;;;;;;5034363;28;19925;-59
2021/01/19 04:28:52;;;;;;;;;;;;;;;;;;5034282;28;19930;-59
2021/01/19 04:31:18;;;;;;;;;;;;;;;;;;5034104;28;19956;-59
2021/01/19 04:33:44;;;;;;;;;;;;;;;;;;5034240;28;20440;-59
2021/01/19 04:36:10;;;;;;;;;;;;;;;;;;5033895;28;19920;-59
2021/01/19 04:38:36;;;;;;;;;;;;;;;;;;5034529;28;19925;-59
2021/01/19 04:41:02;;;;;;;;;;;;;;;;;;5033847;28;19930;-59
2021/01/19 04:43:28;;;;;;;;;;;;;;;;;;5016117;28;19954;-59
2021/01/19 04:45:54;;;;;;;;;;;;;;;;;;5033932;28;19954;-59
2021/01/19 04:48:20;;;;;;;;;;;;;;;;;;5034121;28;20357;-59
2021/01/19 04:50:46;;;;;;;;;;;;;;;;;;5033887;28;20000;-59
2021/01/19 04:53:12;;;;;;;;;;;;;;;;;;5034042;28;19957;-59
2021/01/19 04:55:38;;;;;;;;;;;;;;;;;;5033619;28;19963;-59
2021/01/19 04:58:04;;;;;;;;;;;;;;;;;;5033772;28;19909;-59
2021/01/19 05:00:30;;;;;;;;;;;;;;;;;;5033092;28;19942;-59
2021/01/19 05:02:58;;;;;;;;;;;;;;;;;;5034014;28;20276;-59
2021/01/19 05:05:24;;;;;;;;;;;;;;;;;;5033697;28;20016;-60
2021/01/19 05:07:50;;;;;;;;;;;;;;;;;;5033657;28;19968;-59
2021/01/19 05:10:16;;;;;;;;;;;;;;;;;;5033568;28;19920;-59
2021/01/19 05:12:42;;;;;;;;;;;;;;;;;;5034088;28;20442;-58
2021/01/19 05:15:08;;;;;;;;;;;;;;;;;;5033597;28;20022;-60
2021/01/19 05:17:34;;;;;;;;;;;;;;;;;;5033769;28;19909;-60
2021/01/19 05:20:00;;;;;;;;;;;;;;;;;;5033424;28;19975;-60
2021/01/19 05:22:26;;;;;;;;;;;;;;;;;;5033800;28;20258;-61
2021/01/19 05:24:52;;;;;;;;;;;;;;;;;;5033601;28;19959;-60
2021/01/19 05:27:18;;;;;;;;;;;;;;;;;;5033720;28;19909;-60
2021/01/19 05:29:44;;;;;;;;;;;;;;;;;;5033327;28;19909;-60
2021/01/19 05:32:09;;;;;;;;;;;;;;;;;;5033047;28;20015;-60
2021/01/19 05:34:36;;;;;;;;;;;;;;;;;;5033388;28;19913;-59
2021/01/19 05:37:02;;;;;;;;;;;;;;;;;;5033650;28;19927;-60
2021/01/19 05:39:28;;;;;;;;;;;;;;;;;;5033566;28;20263;-60
2021/01/19 05:41:54;;;;;;;;;;;;;;;;;;5033576;28;19914;-60
2021/01/19 05:44:20;;;;;;;;;;;;;;;;;;5033477;28;20306;-60
2021/01/19 05:46:46;;;;;;;;;;;;;;;;;;5033175;28;19935;-60
2021/01/19 05:49:12;;;;;;;;;;;;;;;;;;5033598;28;19921;-60
2021/01/19 05:51:38;;;;;;;;;;;;;;;;;;5033337;28;19920;-60
2021/01/19 05:54:03;;;;;;;;;;;;;;;;;;5033371;28;20350;-60
2021/01/19 05:56:29;;;;;;;;;;;;;;;;;;5008011;28;19999;-60
2021/01/19 05:58:55;;;;;;;;;;;;;;;;;;5011876;28;19917;-60
2021/01/19 06:01:21;;;;;;;;;;;;;;;;;;5013346;28;19971;-61
2021/01/19 06:03:47;;;;;;;;;;;;;;;;;;5013195;28;19963;-62
2021/01/19 06:06:13;;;;;;;;;;;;;;;;;;5013263;28;19947;-60
2021/01/19 06:08:39;;;;;;;;;;;;;;;;;;5013951;28;19944;-60
2021/01/19 06:11:05;;;;;;;;;;;;;;;;;;5013156;28;19930;-60
2021/01/19 06:13:31;;;;;;;;;;;;;;;;;;5016275;28;20014;-60
2021/01/19 06:15:57;;;;;;;;;;;;;;;;;;5016684;28;19945;-60
2021/01/19 06:18:23;;;;;;;;;;;;;;;;;;5016634;28;19990;-60
2021/01/19 06:20:49;;;;;;;;;;;;;;;;;;5016499;28;20017;-63
2021/01/19 06:23:15;;;;;;;;;;;;;;;;;;5016789;28;19949;-60
2021/01/19 06:25:41;;;;;;;;;;;;;;;;;;5016731;28;19909;-60
2021/01/19 06:28:07;;;;;;;;;;;;;;;;;;5016586;28;20390;-60
2021/01/19 06:30:33;;;;;;;;;;;;;;;;;;5016351;28;19966;-60
2021/01/19 06:32:59;;;;;;;;;;;;;;;;;;5016196;28;19960;-60
2021/01/19 06:35:25;;;;;;;;;;;;;;;;;;5016311;28;20281;-60
2021/01/19 06:37:51;;;;;;;;;;;;;;;;;;5016591;28;20084;-59
2021/01/19 06:40:17;;;;;;;;;;;;;;;;;;5016284;28;20405;-60
2021/01/19 06:42:43;;;;;;;;;;;;;;;;;;5016219;28;19920;-59
2021/01/19 06:45:09;;;;;;;;;;;;;;;;;;5016368;28;19958;-60
2021/01/19 06:47:35;;;;;;;;;;;;;;;;;;5032476;28;19924;-61
2021/01/19 06:50:00;;;;;;;;;;;;;;;;;;5035215;28;19931;-61
2021/01/19 06:52:26;;;;;;;;;;;;;;;;;;5017639;28;19915;-60
2021/01/19 06:54:52;;;;;;;;;;;;;;;;;;5035555;28;19916;-60
2021/01/19 06:57:18;;;;;;;;;;;;;;;;;;5035675;28;19930;-61
2021/01/19 06:59:44;;;;;;;;;;;;;;;;;;5035853;28;20492;-61
2021/01/19 07:02:10;;;;;;;;;;;;;;;;;;5035552;28;19995;-61
2021/01/19 07:04:36;;;;;;;;;;;;;;;;;;5035550;28;19945;-61
2021/01/19 07:07:02;;;;;;;;;;;;;;;;;;5017361;28;19909;-60
2021/01/19 07:09:28;;;;;;;;;;;;;;;;;;5035829;28;19909;-61
2021/01/19 07:11:54;;;;;;;;;;;;;;;;;;5035405;28;20260;-60
2021/01/19 07:14:20;;;;;;;;;;;;;;;;;;5035229;28;19913;-62
2021/01/19 07:16:46;;;;;;;;;;;;;;;;;;5035589;28;20026;-62
2021/01/19 07:19:12;;;;;;;;;;;;;;;;;;5035609;28;19946;-61
2021/01/19 07:21:38;;;;;;;;;;;;;;;;;;5035252;28;20386;-61
2021/01/19 07:24:04;;;;;;;;;;;;;;;;;;5034596;28;19921;-61
2021/01/19 07:26:30;;;;;;;;;;;;;;;;;;5033484;28;20035;-61
2021/01/19 07:28:56;;;;;;;;;;;;;;;;;;5029984;28;20362;-61
2021/01/19 07:31:22;;;;;;;;;;;;;;;;;;5034232;28;19924;-61
2021/01/19 07:33:48;;;;;;;;;;;;;;;;;;5035086;28;19984;-61
2021/01/19 07:36:14;;;;;;;;;;;;;;;;;;5034496;28;19941;-61
2021/01/19 07:38:40;;;;;;;;;;;;;;;;;;5034961;28;19921;-61
2021/01/19 07:41:06;;;;;;;;;;;;;;;;;;5034827;28;19909;-61
2021/01/19 07:43:31;;;;;;;;;;;;;;;;;;5033804;28;20013;-61
2021/01/19 07:45:57;;;;;;;;;;;;;;;;;;5035162;28;19933;-61
2021/01/19 07:48:23;;;;;;;;;;;;;;;;;;5034857;28;20089;-61
2021/01/19 07:50:49;;;;;;;;;;;;;;;;;;5035608;28;19932;-60
2021/01/19 07:53:15;;;;;;;;;;;;;;;;;;5034580;28;19910;-60
2021/01/19 07:55:41;;;;;;;;;;;;;;;;;;5034617;28;19924;-61
2021/01/19 07:58:07;;;;;;;;;;;;;;;;;;5033909;28;20004;-61
2021/01/19 08:00:33;;;;;;;;;;;;;;;;;;5034803;28;20146;-60
2021/01/19 08:02:59;;;;;;;;;;;;;;;;;;5034770;28;19922;-60
2021/01/19 08:05:25;;;;;;;;;;;;;;;;;;5034346;28;19955;-60
2021/01/19 08:07:51;;;;;;;;;;;;;;;;;;5034433;28;19909;-60
2021/01/19 08:10:18;;;;;;;;;;;;;;;;;;5029677;28;20329;-60
2021/01/19 08:12:44;;;;;;;;;;;;;;;;;;5028973;28;20278;-63
2021/01/19 08:15:10;;;;;;;;;;;;;;;;;;5034244;28;19937;-60
2021/01/19 08:17:37;;;;;;;;;;;;;;;;;;5034161;28;19909;-61
2021/01/19 08:20:03;;;;;;;;;;;;;;;;;;5033840;28;19916;-61
2021/01/19 08:22:29;;;;;;;;;;;;;;;;;;5032808;28;20274;-60
2021/01/19 08:24:59;;;;;;;;;;;;;;;;;;5031673;28;19963;-61
2021/01/19 08:27:25;;;;;;;;;;;;;;;;;;5034422;28;19920;-61
2021/01/19 08:29:51;;;;;;;;;;;;;;;;;;5033921;28;19929;-61
2021/01/19 08:32:17;;;;;;;;;;;;;;;;;;5033825;28;19955;-60
2021/01/19 08:34:43;;;;;;;;;;;;;;;;;;5033319;28;19920;-61
2021/01/19 08:37:09;;;;;;;;;;;;;;;;;;5034261;28;19946;-61
2021/01/19 08:39:35;;;;;;;;;;;;;;;;;;5033999;28;19920;-61
2021/01/19 08:42:01;;;;;;;;;;;;;;;;;;5034171;28;19925;-61
2021/01/19 08:44:27;;;;;;;;;;;;;;;;;;5033797;28;19948;-61
2021/01/19 08:46:53;;;;;;;;;;;;;;;;;;5033818;28;19986;-61
2021/01/19 08:49:19;;;;;;;;;;;;;;;;;;5033831;28;19920;-61
2021/01/19 08:51:45;;;;;;;;;;;;;;;;;;5034093;28;20292;-61
2021/01/19 08:54:11;;;;;;;;;;;;;;;;;;5033730;28;19927;-62
2021/01/19 08:56:37;;;;;;;;;;;;;;;;;;5033650;28;19909;-62
2021/01/19 08:59:03;;;;;;;;;;;;;;;;;;5033864;28;20035;-62
2021/01/19 09:01:29;;;;;;;;;;;;;;;;;;5034051;28;20408;-62
2021/01/19 09:03:55;;;;;;;;;;;;;;;;;;5033006;28;19971;-61
2021/01/19 09:06:21;;;;;;;;;;;;;;;;;;5014770;28;19950;-61
2021/01/19 09:08:47;;;;;;;;;;;;;;;;;;5033861;28;19921;-61
2021/01/19 09:11:13;;;;;;;;;;;;;;;;;;5033634;28;19909;-61
2021/01/19 09:13:39;;;;;;;;;;;;;;;;;;5033600;28;19922;-61
2021/01/19 09:16:05;;;;;;;;;;;;;;;;;;5033722;28;19927;-61
2021/01/19 09:18:31;;;;;;;;;;;;;;;;;;5033457;28;19920;-61
2021/01/19 09:20:57;;;;;;;;;;;;;;;;;;5033830;28;20353;-61
2021/01/19 09:23:23;;;;;;;;;;;;;;;;;;5033534;28;19946;-61
2021/01/19 09:25:49;;;;;;;;;;;;;;;;;;5033595;28;19916;-61
2021/01/19 09:28:15;;;;;;;;;;;;;;;;;;5033305;28;19931;-61
2021/01/19 09:30:41;;;;;;;;;;;;;;;;;;5033869;28;19965;-61
2021/01/19 09:33:07;;;;;;;;;;;;;;;;;;5033095;28;19961;-62
2021/01/19 09:35:33;;;;;;;;;;;;;;;;;;5032691;28;19946;-62
2021/01/19 09:37:59;;;;;;;;;;;;;;;;;;5028901;28;19930;-61
2021/01/19 09:40:25;;;;;;;;;;;;;;;;;;5033269;28;19930;-62
2021/01/19 09:42:51;;;;;;;;;;;;;;;;;;5033282;28;20364;-62
2021/01/19 09:45:17;;;;;;;;;;;;;;;;;;5033179;28;19963;-62
2021/01/19 09:47:43;;;;;;;;;;;;;;;;;;5037023;28;19909;-62
2021/01/19 09:50:09;;;;;;;;;;;;;;;;;;5037249;28;20415;-62
2021/01/19 09:52:35;;;;;;;;;;;;;;;;;;5037437;28;19995;-62
2021/01/19 09:55:01;;;;;;;;;;;;;;;;;;5036784;28;20395;-62
2021/01/19 09:57:27;;;;;;;;;;;;;;;;;;5037356;28;19964;-62
2021/01/19 09:59:53;;;;;;;;;;;;;;;;;;5036963;28;19995;-62
2021/01/19 10:02:18;;;;;;;;;;;;;;;;;;5036917;28;20298;-63
2021/01/19 10:04:44;;;;;;;;;;;;;;;;;;5036757;28;20012;-62
2021/01/19 10:07:10;;;;;;;;;;;;;;;;;;5035475;28;19950;-62
2021/01/19 10:09:36;;;;;;;;;;;;;;;;;;5035076;28;19988;-62
2021/01/19 10:12:02;;;;;;;;;;;;;;;;;;5036248;28;20076;-61
2021/01/19 10:14:28;;;;;;;;;;;;;;;;;;5033959;28;19934;-62
2021/01/19 10:16:55;;;;;;;;;;;;;;;;;;5036547;28;19909;-62
2021/01/19 10:19:21;;;;;;;;;;;;;;;;;;5036472;28;19927;-59
2021/01/19 10:21:46;;;;;;;;;;;;;;;;;;5036641;28;20321;-60
2021/01/19 10:24:12;;;;;;;;;;;;;;;;;;5036253;28;19921;-61
2021/01/19 10:26:38;;;;;;;;;;;;;;;;;;5034526;28;20415;-59
2021/01/19 10:29:04;;;;;;;;;;;;;;;;;;5029700;28;20102;-61
2021/01/19 10:31:30;;;;;;;;;;;;;;;;;;5019169;28;20419;-61
2021/01/19 10:33:58;;;;;;;;;;;;;;;;;;5016426;28;19982;-62
2021/01/19 10:36:24;;;;;;;;;;;;;;;;;;5016444;28;20332;-61
2021/01/19 10:38:50;;;;;;;;;;;;;;;;;;5016246;28;19923;-63
2021/01/19 10:41:16;;;;;;;;;;;;;;;;;;5016315;28;19923;-62
2021/01/19 10:43:42;;;;;;;;;;;;;;;;;;5018508;28;19913;-61
2021/01/19 10:46:08;;;;;;;;;;;;;;;;;;5033346;28;19914;-61
2021/01/19 10:48:34;;;;;;;;;;;;;;;;;;5035816;28;20337;-62
2021/01/19 10:51:00;;;;;;;;;;;;;;;;;;5035761;28;19927;-61
2021/01/19 10:53:26;;;;;;;;;;;;;;;;;;5028047;28;19979;-61
2021/01/19 10:55:52;;;;;;;;;;;;;;;;;;5034415;28;20346;-61
2021/01/19 10:58:18;;;;;;;;;;;;;;;;;;5033565;28;19925;-61
2021/01/19 11:00:44;;;;;;;;;;;;;;;;;;5034568;28;19936;-61
2021/01/19 11:03:09;;;;;;;;;;;;;;;;;;5035546;28;20336;-61
2021/01/19 11:05:36;;;;;;;;;;;;;;;;;;5034501;28;19958;-60
2021/01/19 11:08:02;;;;;;;;;;;;;;;;;;5034124;28;19927;-61
2021/01/19 11:10:28;;;;;;;;;;;;;;;;;;5034650;28;19925;-62
2021/01/19 11:12:54;;;;;;;;;;;;;;;;;;5033284;28;20027;-61
2021/01/19 11:15:20;;;;;;;;;;;;;;;;;;5032922;28;20020;-63
2021/01/19 11:17:46;;;;;;;;;;;;;;;;;;5035377;28;19929;-61
2021/01/19 11:20:12;;;;;;;;;;;;;;;;;;5035038;28;19927;-62
2021/01/19 11:22:38;;;;;;;;;;;;;;;;;;5035956;28;19923;-62
2021/01/19 11:25:04;;;;;;;;;;;;;;;;;;5035101;28;20370;-63
2021/01/19 11:27:30;;;;;;;;;;;;;;;;;;5028850;28;20354;-61
2021/01/19 11:29:56;;;;;;;;;;;;;;;;;;5032814;28;20002;-61
2021/01/19 11:32:22;;;;;;;;;;;;;;;;;;5034844;28;19962;-62
2021/01/19 11:34:48;;;;;;;;;;;;;;;;;;5034888;28;19909;-62
2021/01/19 11:37:14;;;;;;;;;;;;;;;;;;5035139;28;19921;-62
2021/01/19 11:39:40;;;;;;;;;;;;;;;;;;5034854;28;20032;-62
2021/01/19 11:42:06;;;;;;;;;;;;;;;;;;5035025;28;20391;-62
2021/01/19 11:44:32;;;;;;;;;;;;;;;;;;5034465;28;19946;-61
2021/01/19 11:46:58;;;;;;;;;;;;;;;;;;5024937;28;20274;-61
2021/01/19 11:49:24;;;;;;;;;;;;;;;;;;5031806;28;19961;-62
2021/01/19 11:51:50;;;;;;;;;;;;;;;;;;5034891;28;19979;-61
2021/01/19 11:54:16;;;;;;;;;;;;;;;;;;5024885;28;20282;-61
2021/01/19 11:56:42;;;;;;;;;;;;;;;;;;5024236;28;19910;-62
2021/01/19 11:59:08;;;;;;;;;;;;;;;;;;5027443;28;19946;-61
2021/01/19 12:01:34;;;;;;;;;;;;;;;;;;5034600;28;19910;-62
2021/01/19 12:04:00;;;;;;;;;;;;;;;;;;5024570;28;19953;-61
2021/01/19 12:06:26;;;;;;;;;;;;;;;;;;5027182;28;20372;-62
2021/01/19 12:08:52;;;;;;;;;;;;;;;;;;5034455;28;19927;-62
2021/01/19 12:11:18;;;;;;;;;;;;;;;;;;5034326;28;19954;-62
2021/01/19 12:13:44;;;;;;;;;;;;;;;;;;5034166;28;19930;-62
2021/01/19 12:16:10;;;;;;;;;;;;;;;;;;5032847;28;20290;-62
2021/01/19 12:18:36;;;;;;;;;;;;;;;;;;5034162;28;20000;-63
2021/01/19 12:21:02;;;;;;;;;;;;;;;;;;5033233;28;20388;-62
2021/01/19 12:23:28;;;;;;;;;;;;;;;;;;5033164;28;19968;-62
2021/01/19 12:25:54;;;;;;;;;;;;;;;;;;5016278;28;19948;-62
2021/01/19 12:28:20;;;;;;;;;;;;;;;;;;5032847;28;19929;-62
2021/01/19 12:30:46;;;;;;;;;;;;;;;;;;5032328;28;20056;-62
2021/01/19 12:33:12;;;;;;;;;;;;;;;;;;5033168;28;19956;-62
2021/01/19 12:35:38;;;;;;;;;;;;;;;;;;5032199;28;20403;-62
2021/01/19 12:38:04;;;;;;;;;;;;;;;;;;5023506;28;19934;-62
2021/01/19 12:40:30;;;;;;;;;;;;;;;;;;5023855;28;19924;-61
2021/01/19 12:42:56;;;;;;;;;;;;;;;;;;5014434;28;19941;-62
2021/01/19 12:45:22;;;;;;;;;;;;;;;;;;5026847;28;19944;-61
2021/01/19 12:47:48;;;;;;;;;;;;;;;;;;5032588;28;19919;-62
2021/01/19 12:50:14;;;;;;;;;;;;;;;;;;5029962;28;19928;-62
2021/01/19 12:52:40;;;;;;;;;;;;;;;;;;5033556;28;19922;-61
2021/01/19 12:55:06;;;;;;;;;;;;;;;;;;5032569;28;20037;-61
2021/01/19 12:57:32;;;;;;;;;;;;;;;;;;5033696;28;19909;-61
2021/01/19 12:59:58;;;;;;;;;;;;;;;;;;5033528;28;20025;-61
2021/01/19 13:02:24;;;;;;;;;;;;;;;;;;5031608;28;19932;-63
2021/01/19 13:04:50;;;;;;;;;;;;;;;;;;5024846;28;19949;-61
2021/01/19 13:07:16;;;;;;;;;;;;;;;;;;5024753;28;19932;-61
2021/01/19 13:09:42;;;;;;;;;;;;;;;;;;5022599;28;19910;-62
2021/01/19 13:12:08;;;;;;;;;;;;;;;;;;5026178;28;19945;-61
2021/01/19 13:14:34;;;;;;;;;;;;;;;;;;5030631;28;19981;-62
2021/01/19 13:17:00;;;;;;;;;;;;;;;;;;5032491;28;20404;-62
2021/01/19 13:19:26;;;;;;;;;;;;;;;;;;5033665;28;19930;-61
2021/01/19 13:21:52;;;;;;;;;;;;;;;;;;5035934;28;19927;-61
2021/01/19 13:24:18;;;;;;;;;;;;;;;;;;5036135;28;20377;-61
2021/01/19 13:26:44;;;;;;;;;;;;;;;;;;5037342;28;19945;-61
2021/01/19 13:29:10;;;;;;;;;;;;;;;;;;5037752;28;19923;-61
2021/01/19 13:31:36;;;;;;;;;;;;;;;;;;5037450;28;20009;-61
2021/01/19 13:34:02;;;;;;;;;;;;;;;;;;5037404;28;19916;-61
2021/01/19 13:36:28;;;;;;;;;;;;;;;;;;5037375;28;20401;-61
2021/01/19 13:38:54;;;;;;;;;;;;;;;;;;5037131;28;19928;-60
2021/01/19 13:41:20;;;;;;;;;;;;;;;;;;5037475;28;19909;-60
2021/01/19 13:43:46;;;;;;;;;;;;;;;;;;5037019;28;19958;-61
2021/01/19 13:46:12;;;;;;;;;;;;;;;;;;5037325;28;19927;-62
2021/01/19 13:48:38;;;;;;;;;;;;;;;;;;5036031;28;19927;-62
2021/01/19 13:51:04;;;;;;;;;;;;;;;;;;5036676;28;19943;-62
2021/01/19 13:53:30;;;;;;;;;;;;;;;;;;5036777;28;19927;-62
2021/01/19 13:55:56;;;;;;;;;;;;;;;;;;5036746;28;20383;-62
2021/01/19 13:58:22;;;;;;;;;;;;;;;;;;5036698;28;19955;-62
2021/01/19 14:00:49;;;;;;;;;;;;;;;;;;5036718;28;19982;-62
2021/01/19 14:03:15;;;;;;;;;;;;;;;;;;5037044;28;20355;-62
2021/01/19 14:05:41;;;;;;;;;;;;;;;;;;5036987;28;20046;-62
2021/01/19 14:08:11;;;;;;;;;;;;;;;;;;5036673;28;20350;-62
2021/01/19 14:10:37;;;;;;;;;;;;;;;;;;5036856;28;19998;-62
2021/01/19 14:13:03;;;;;;;;;;;;;;;;;;5036646;28;19925;-62
2021/01/19 14:15:29;;;;;;;;;;;;;;;;;;5036553;28;20408;-62
2021/01/19 14:17:55;;;;;;;;;;;;;;;;;;5036228;28;19929;-63
2021/01/19 14:20:21;;;;;;;;;;;;;;;;;;5036405;28;19970;-62
2021/01/19 14:22:47;;;;;;;;;;;;;;;;;;5036135;28;20012;-62
2021/01/19 14:25:13;;;;;;;;;;;;;;;;;;5036456;28;19947;-62
2021/01/19 14:27:39;;;;;;;;;;;;;;;;;;5036029;28;19993;-62
2021/01/19 14:30:05;;;;;;;;;;;;;;;;;;5036352;28;19926;-62
2021/01/19 14:32:31;;;;;;;;;;;;;;;;;;5034953;28;19928;-62
2021/01/19 14:34:57;;;;;;;;;;;;;;;;;;5036123;28;19909;-62
2021/01/19 14:37:23;;;;;;;;;;;;;;;;;;5036334;28;19987;-62
2021/01/19 14:39:49;;;;;;;;;;;;;;;;;;5036201;28;19959;-62
2021/01/19 14:42:18;;;;;;;;;;;;;;;;;;5035883;28;20465;-62
2021/01/19 14:44:44;;;;;;;;;;;;;;;;;;5036104;28;20367;-63
2021/01/19 14:47:10;;;;;;;;;;;;;;;;;;5035958;28;19916;-63
2021/01/19 14:49:36;;;;;;;;;;;;;;;;;;5036057;28;19936;-63
2021/01/19 14:52:02;;;;;;;;;;;;;;;;;;5035942;28;20356;-63
2021/01/19 14:54:28;;;;;;;;;;;;;;;;;;5035740;28;19923;-63
2021/01/19 14:56:54;;;;;;;;;;;;;;;;;;5035718;28;19978;-63
2021/01/19 14:59:20;;;;;;;;;;;;;;;;;;5035889;28;19909;-62
2021/01/19 15:01:46;;;;;;;;;;;;;;;;;;5035846;28;20014;-62
2021/01/19 15:04:15;;;;;;;;;;;;;;;;;;5035766;28;20331;-62
2021/01/19 15:06:41;;;;;;;;;;;;;;;;;;5035483;28;19997;-62
2021/01/19 15:09:07;;;;;;;;;;;;;;;;;;5035753;28;19948;-62
2021/01/19 15:11:33;;;;;;;;;;;;;;;;;;5035852;28;19930;-62
2021/01/19 15:13:58;;;;;;;;;;;;;;;;;;5035405;28;19928;-62
2021/01/19 15:16:24;;;;;;;;;;;;;;;;;;5035479;28;19909;-62
2021/01/19 15:18:50;;;;;;;;;;;;;;;;;;5035495;28;19927;-62
2021/01/19 15:21:16;;;;;;;;;;;;;;;;;;5017607;28;20310;-62
2021/01/19 15:23:42;;;;;;;;;;;;;;;;;;5035375;28;20030;-62
2021/01/19 15:26:08;;;;;;;;;;;;;;;;;;5035526;28;19955;-63
2021/01/19 15:28:34;;;;;;;;;;;;;;;;;;5035213;28;20403;-62
2021/01/19 15:31:00;;;;;;;;;;;;;;;;;;5035151;28;20358;-62
2021/01/19 15:33:26;;;;;;;;;;;;;;;;;;5034905;28;19929;-62
2021/01/19 15:35:53;;;;;;;;;;;;;;;;;;5035032;28;19926;-63
2021/01/19 15:38:19;;;;;;;;;;;;;;;;;;5034819;28;20026;-63
2021/01/19 15:40:45;;;;;;;;;;;;;;;;;;5035046;28;20018;-62
2021/01/19 15:43:11;;;;;;;;;;;;;;;;;;5034730;28;19943;-62
2021/01/19 15:45:37;;;;;;;;;;;;;;;;;;5034437;28;19954;-62
2021/01/19 15:48:03;;;;;;;;;;;;;;;;;;5016976;28;19909;-62
2021/01/19 15:50:29;;;;;;;;;;;;;;;;;;5035085;28;19923;-63
2021/01/19 15:52:55;;;;;;;;;;;;;;;;;;5016919;28;20112;-62
2021/01/19 15:55:20;;;;;;;;;;;;;;;;;;5034589;28;19941;-62
2021/01/19 15:57:46;;;;;;;;;;;;;;;;;;5034492;28;19909;-62
2021/01/19 16:00:12;;;;;;;;;;;;;;;;;;5034511;28;19922;-62
2021/01/19 16:02:38;;;;;;;;;;;;;;;;;;5033240;28;19927;-62
2021/01/19 16:05:04;;;;;;;;;;;;;;;;;;5034713;28;20058;-62
2021/01/19 16:07:32;;;;;;;;;;;;;;;;;;5031974;28;20377;-61
2021/01/19 16:09:58;;;;;;;;;;;;;;;;;;5011126;28;19928;-60
2021/01/19 16:12:24;;;;;;;;;;;;;;;;;;5022665;28;20386;-62
2021/01/19 16:14:50;;;;;;;;;;;;;;;;;;5027913;28;20315;-62
2021/01/19 16:17:17;;;;;;;;;;;;;;;;;;5029203;28;20029;-63
2021/01/19 16:19:47;;;;;;;;;;;;;;;;;;5019001;28;19916;-62
2021/01/19 16:22:13;;;;;;;;;;;;;;;;;;5034160;28;19945;-62
2021/01/19 16:24:39;;;;;;;;;;;;;;;;;;5033868;28;19955;-63
2021/01/19 16:27:04;;;;;;;;;;;;;;;;;;5015208;28;20000;-62
2021/01/19 16:29:30;;;;;;;;;;;;;;;;;;5014039;28;19976;-61
2021/01/19 16:31:56;;;;;;;;;;;;;;;;;;5026173;28;19959;-61
2021/01/19 16:34:22;;;;;;;;;;;;;;;;;;5012841;28;20472;-61
2021/01/19 16:36:49;;;;;;;;;;;;;;;;;;5012636;28;20393;-64